Terminal Aerodrome Forecast
Issued by NWS Tuscon, AZ

Home | Current Version | Previous Version | Text Only | Print | Product List | Glossary On
Versions: 1 2 3 4 5 6 7 8 9 10 11 12 13
322
FTUS45 KTWC 132335
TAFDUG
TAF
KDUG 132335Z 1400/1424 20008KT P6SM SCT250
     FM140300 35006KT P6SM SCT250
     FM141000 VRB04KT P6SM SCT250
     FM142000 32008KT P6SM SCT250=

USA.gov is the U.S. government's official web portal to all federal, state and local government web resources and services.